Time;durP1;ratioP1;P1;durP2;ratioP2;P2;SDS_P1;SDS_P2;PMS_P1;PMS_P2;Temp;Humidity;BMP_temperature;BMP_pressure;BME280_temperature;BME280_humidity;BME280_pressure;Samples;Min_cycle;Max_cycle;Signal;HPM_P1;HPM_P2
2022/01/22 00:01:02;;;;;;;;;17.50;15.25;;;;;;;;5016678;28;45442;-73
2022/01/22 00:03:27;;;;;;;;;19.00;18.50;;;;;;;;5015529;28;45399;-73
2022/01/22 00:05:53;;;;;;;;;22.00;19.00;;;;;;;;5016572;28;45372;-73
2022/01/22 00:08:18;;;;;;;;;16.75;14.00;;;;;;;;5016893;28;45991;-73
2022/01/22 00:10:44;;;;;;;;;19.25;18.25;;;;;;;;5016012;28;45394;-73
2022/01/22 00:15:44;;;;;;;;;18.00;14.50;;;;;;;;5018576;28;45564;-74
2022/01/22 00:18:10;;;;;;;;;18.00;14.50;;;;;;;;5015476;28;46084;-73
2022/01/22 00:20:38;;;;;;;;;19.00;18.75;;;;;;;;5015989;28;45576;-73
2022/01/22 00:23:04;;;;;;;;;16.25;15.00;;;;;;;;5015249;28;45371;-73
2022/01/22 00:25:29;;;;;;;;;14.75;11.00;;;;;;;;5018548;28;45301;-76
2022/01/22 00:27:54;;;;;;;;;14.75;12.50;;;;;;;;5015616;28;46518;-76
2022/01/22 00:30:22;;;;;;;;;14.50;13.00;;;;;;;;5015256;28;45440;-75
2022/01/22 00:32:48;;;;;;;;;19.00;15.50;;;;;;;;4999051;28;45281;-75
2022/01/22 00:35:13;;;;;;;;;16.25;14.25;;;;;;;;5016751;28;45417;-75
2022/01/22 00:37:42;;;;;;;;;21.00;17.25;;;;;;;;5010000;28;46950;-74
2022/01/22 00:40:09;;;;;;;;;17.00;12.00;;;;;;;;5011015;28;45479;-75
2022/01/22 00:42:35;;;;;;;;;14.25;14.25;;;;;;;;5011353;28;45581;-76
2022/01/22 00:45:00;;;;;;;;;18.50;17.25;;;;;;;;5014169;28;45439;-74
2022/01/22 00:47:25;;;;;;;;;17.25;14.00;;;;;;;;5012460;28;46410;-75
2022/01/22 00:49:51;;;;;;;;;19.00;17.50;;;;;;;;5011882;28;45491;-75
2022/01/22 00:52:16;;;;;;;;;11.50;11.50;;;;;;;;5011497;28;45548;-75
2022/01/22 00:54:41;;;;;;;;;15.00;15.00;;;;;;;;5011359;28;45560;-75
2022/01/22 00:57:06;;;;;;;;;19.25;12.75;;;;;;;;5013171;28;46329;-75
2022/01/22 00:59:32;;;;;;;;;21.00;17.25;;;;;;;;5013411;28;45661;-75
2022/01/22 01:01:57;;;;;;;;;21.50;17.00;;;;;;;;5015693;28;45375;-75
2022/01/22 01:04:22;;;;;;;;;12.50;12.25;;;;;;;;5015139;28;45324;-76
2022/01/22 01:06:48;;;;;;;;;16.50;13.50;;;;;;;;5009980;28;45589;-75
2022/01/22 01:09:13;;;;;;;;;13.75;13.75;;;;;;;;5012282;28;45514;-75
2022/01/22 01:11:47;;;;;;;;;16.75;15.50;;;;;;;;5014467;28;45282;-74
2022/01/22 01:14:18;;;;;;;;;15.50;13.00;;;;;;;;5016013;28;45546;-74
2022/01/22 01:16:57;;;;;;;;;18.25;15.00;;;;;;;;5013802;28;47184;-75
2022/01/22 01:33:07;;;;;;;;;15.50;13.00;;;;;;;;5001089;28;45525;-75
2022/01/22 01:35:36;;;;;;;;;15.00;13.50;;;;;;;;5015013;28;45426;-75
2022/01/22 01:38:03;;;;;;;;;17.00;13.75;;;;;;;;5013854;28;46958;-74
2022/01/22 01:40:30;;;;;;;;;43.00;36.75;;;;;;;;5014681;28;45341;-75
2022/01/22 01:45:29;;;;;;;;;19.25;18.50;;;;;;;;5013995;28;45718;-75
2022/01/22 01:47:56;;;;;;;;;17.50;13.50;;;;;;;;5014264;28;45998;-75
2022/01/22 01:50:21;;;;;;;;;16.00;13.50;;;;;;;;5015125;28;45385;-74
2022/01/22 01:53:11;;;;;;;;;15.25;15.00;;;;;;;;5015032;28;45332;-75
2022/01/22 01:57:26;;;;;;;;;14.00;10.75;;;;;;;;5014392;28;45591;-75
2022/01/22 01:58:20;;;;;;;;;16.00;13.50;;;;;;;;5005527;28;45269;-75
2022/01/22 02:00:46;;;;;;;;;15.00;11.00;;;;;;;;5009907;28;45210;-76
2022/01/22 02:03:12;;;;;;;;;12.00;12.00;;;;;;;;5014911;28;45383;-74
2022/01/22 02:05:38;;;;;;;;;13.25;11.50;;;;;;;;5014486;28;45613;-74
2022/01/22 02:08:04;;;;;;;;;13.75;13.75;;;;;;;;5015022;28;47065;-74
2022/01/22 02:10:33;;;;;;;;;13.25;13.25;;;;;;;;5013839;28;45426;-75
2022/01/22 02:13:40;;;;;;;;;18.75;15.75;;;;;;;;5014195;28;45601;-76
2022/01/22 02:23:57;;;;;;;;;23.25;19.00;;;;;;;;4999654;28;45469;-74
2022/01/22 02:26:22;;;;;;;;;14.75;12.50;;;;;;;;5014379;28;45395;-74
2022/01/22 02:28:49;;;;;;;;;20.00;15.25;;;;;;;;5008433;28;46948;-74
2022/01/22 02:31:26;;;;;;;;;17.00;15.25;;;;;;;;5010095;28;45405;-74
2022/01/22 02:36:45;;;;;;;;;17.00;16.25;;;;;;;;5003443;28;45318;-74
2022/01/22 02:39:16;;;;;;;;;15.00;13.50;;;;;;;;5014366;28;45331;-75
2022/01/22 02:41:43;;;;;;;;;14.00;13.00;;;;;;;;5014348;28;45591;-75
2022/01/22 02:44:14;;;;;;;;;14.75;12.50;;;;;;;;5014070;28;45441;-74
2022/01/22 02:46:42;;;;;;;;;17.50;14.75;;;;;;;;5013506;28;45352;-74
2022/01/22 02:49:07;;;;;;;;;15.00;14.75;;;;;;;;5013767;28;46413;-75
2022/01/22 02:51:33;;;;;;;;;16.25;16.25;;;;;;;;5013415;28;45467;-75
2022/01/22 02:53:59;;;;;;;;;14.25;14.25;;;;;;;;5013579;28;45543;-76
2022/01/22 02:56:25;;;;;;;;;18.50;17.50;;;;;;;;5014872;28;45399;-75
2022/01/22 02:58:51;;;;;;;;;16.00;14.50;;;;;;;;5009894;28;45458;-74
2022/01/22 03:01:17;;;;;;;;;18.50;15.00;;;;;;;;5013804;28;45238;-75
2022/01/22 03:03:43;;;;;;;;;20.00;18.00;;;;;;;;5013559;28;45398;-74
2022/01/22 03:06:08;;;;;;;;;18.75;16.00;;;;;;;;5028874;28;45486;-76
2022/01/22 03:08:33;;;;;;;;;17.75;16.00;;;;;;;;5013592;28;46128;-75
2022/01/22 03:11:01;;;;;;;;;15.00;13.75;;;;;;;;5015035;28;45368;-76
2022/01/22 03:17:27;;;;;;;;;11.00;9.00;;;;;;;;5013218;28;45277;-75
2022/01/22 03:19:12;;;;;;;;;12.25;12.00;;;;;;;;5008461;28;45795;-75
2022/01/22 03:21:42;;;;;;;;;10.50;10.50;;;;;;;;5013235;28;45447;-75
2022/01/22 03:29:39;;;;;;;;;13.75;12.75;;;;;;;;5011799;28;45384;-76
2022/01/22 03:32:05;;;;;;;;;19.25;12.00;;;;;;;;5008502;28;45434;-75
2022/01/22 03:34:37;;;;;;;;;12.00;11.00;;;;;;;;5009191;28;45426;-75
2022/01/22 03:37:02;;;;;;;;;11.25;11.00;;;;;;;;5012965;28;45458;-74
2022/01/22 03:39:27;;;;;;;;;18.50;14.75;;;;;;;;5009708;28;45951;-74
2022/01/22 03:41:53;;;;;;;;;17.50;12.75;;;;;;;;5016178;28;45523;-75
2022/01/22 03:44:18;;;;;;;;;13.75;10.75;;;;;;;;5013555;28;45422;-75
2022/01/22 03:46:43;;;;;;;;;17.75;15.75;;;;;;;;5012088;28;45236;-74
2022/01/22 03:49:10;;;;;;;;;12.50;11.50;;;;;;;;5012066;28;46040;-74
2022/01/22 03:51:36;;;;;;;;;16.75;15.00;;;;;;;;5014687;28;45292;-74
2022/01/22 03:54:01;;;;;;;;;13.00;12.25;;;;;;;;5002518;28;45371;-74
2022/01/22 03:56:26;;;;;;;;;18.75;16.00;;;;;;;;5016019;28;45356;-76
2022/01/22 03:58:52;;;;;;;;;13.00;12.75;;;;;;;;5016714;28;46464;-76
2022/01/22 04:03:55;;;;;;;;;10.25;9.50;;;;;;;;5016639;28;45462;-75
2022/01/22 04:08:57;;;;;;;;;15.50;15.00;;;;;;;;5001603;28;45937;-75
2022/01/22 04:11:23;;;;;;;;;19.00;15.75;;;;;;;;5015984;28;45391;-75
2022/01/22 04:13:51;;;;;;;;;18.50;14.00;;;;;;;;5016961;28;45410;-75
2022/01/22 04:16:16;;;;;;;;;16.00;13.50;;;;;;;;5012245;28;45563;-75
2022/01/22 04:26:56;;;;;;;;;17.25;16.00;;;;;;;;5000518;28;46847;-75
2022/01/22 04:29:22;;;;;;;;;13.25;13.25;;;;;;;;5012659;28;45281;-76
2022/01/22 04:31:47;;;;;;;;;16.00;15.00;;;;;;;;5011731;28;45462;-75
2022/01/22 04:34:12;;;;;;;;;15.75;15.75;;;;;;;;5011737;28;45546;-75
2022/01/22 04:36:38;;;;;;;;;15.25;15.00;;;;;;;;5011724;28;45538;-74
2022/01/22 04:39:03;;;;;;;;;18.50;13.00;;;;;;;;5013835;28;46045;-76
2022/01/22 04:41:29;;;;;;;;;18.75;16.50;;;;;;;;5013698;28;45363;-74
2022/01/22 04:43:59;;;;;;;;;19.00;17.50;;;;;;;;5012044;28;45428;-74
2022/01/22 04:46:37;;;;;;;;;14.50;13.00;;;;;;;;5007348;28;47387;-74
2022/01/22 04:49:11;;;;;;;;;19.75;18.50;;;;;;;;5009972;28;46496;-75
2022/01/22 04:57:05;;;;;;;;;22.50;18.25;;;;;;;;5000106;28;45398;-75
2022/01/22 04:59:30;;;;;;;;;19.00;19.00;;;;;;;;5013347;28;45466;-75
2022/01/22 05:01:55;;;;;;;;;21.50;19.25;;;;;;;;5012187;28;45432;-75
2022/01/22 05:04:20;;;;;;;;;21.25;19.00;;;;;;;;5011335;28;45368;-74
2022/01/22 05:06:45;;;;;;;;;19.25;16.50;;;;;;;;5011514;28;45405;-75
2022/01/22 05:09:11;;;;;;;;;19.00;17.25;;;;;;;;5012192;28;46294;-75
2022/01/22 05:11:36;;;;;;;;;21.25;14.50;;;;;;;;5029003;28;45461;-75
2022/01/22 05:14:01;;;;;;;;;19.00;18.00;;;;;;;;5015678;28;45427;-75
2022/01/22 05:16:26;;;;;;;;;21.75;20.00;;;;;;;;5014923;28;45437;-76
2022/01/22 05:19:00;;;;;;;;;18.75;16.00;;;;;;;;5014918;28;47305;-76
2022/01/22 05:21:27;;;;;;;;;15.50;14.25;;;;;;;;5015142;28;45380;-75
2022/01/22 05:23:54;;;;;;;;;16.00;15.00;;;;;;;;5014550;28;45364;-75
2022/01/22 05:26:48;;;;;;;;;23.75;16.25;;;;;;;;5015842;28;45455;-75
2022/01/22 05:29:21;;;;;;;;;22.75;20.00;;;;;;;;5010878;28;46233;-75
2022/01/22 05:37:01;;;;;;;;;30.25;22.75;;;;;;;;5010244;28;45592;-75
2022/01/22 05:39:29;;;;;;;;;17.75;12.50;;;;;;;;5010341;28;46061;-75
2022/01/22 05:41:54;;;;;;;;;32.50;22.75;;;;;;;;5014825;28;45284;-75
2022/01/22 05:44:19;;;;;;;;;30.25;24.25;;;;;;;;5029047;28;45438;-75
2022/01/22 05:46:44;;;;;;;;;24.00;22.50;;;;;;;;5037250;28;44789;-74
2022/01/22 05:49:10;;;;;;;;;23.75;19.00;;;;;;;;5036317;28;46207;-75
2022/01/22 05:51:38;;;;;;;;;23.50;23.50;;;;;;;;5033340;28;44780;-75
2022/01/22 05:59:38;;;;;;;;;21.25;21.25;;;;;;;;4995970;28;45846;-74
2022/01/22 06:02:23;;;;;;;;;27.25;25.00;;;;;;;;5015006;28;45570;-74
2022/01/22 06:04:48;;;;;;;;;26.25;24.50;;;;;;;;5014271;28;45462;-74
2022/01/22 06:07:13;;;;;;;;;21.75;20.75;;;;;;;;5013974;28;45280;-76
2022/01/22 06:09:51;;;;;;;;;26.25;22.75;;;;;;;;5014087;28;46148;-74
2022/01/22 06:12:27;;;;;;;;;22.75;20.75;;;;;;;;5014516;28;45372;-75
2022/01/22 06:14:52;;;;;;;;;27.50;22.75;;;;;;;;5014631;28;45470;-76
2022/01/22 06:17:17;;;;;;;;;28.75;26.00;;;;;;;;5011236;28;45380;-74
2022/01/22 06:19:42;;;;;;;;;23.50;22.25;;;;;;;;5009923;28;45892;-74
2022/01/22 06:22:07;;;;;;;;;35.00;29.50;;;;;;;;5009122;28;45488;-75
2022/01/22 06:24:33;;;;;;;;;28.75;27.25;;;;;;;;5009762;28;45437;-75
2022/01/22 06:26:58;;;;;;;;;27.25;22.75;;;;;;;;5013236;28;45408;-75
2022/01/22 06:29:23;;;;;;;;;27.50;25.50;;;;;;;;5010656;28;46403;-74
2022/01/22 06:31:48;;;;;;;;;39.75;29.75;;;;;;;;5009435;28;45563;-75
2022/01/22 06:34:13;;;;;;;;;27.50;24.00;;;;;;;;5009803;28;49677;-75
2022/01/22 06:36:39;;;;;;;;;35.00;29.50;;;;;;;;5008892;28;45408;-76
2022/01/22 06:39:19;;;;;;;;;35.00;33.50;;;;;;;;5013803;28;45394;-75
2022/01/22 06:41:44;;;;;;;;;28.25;25.50;;;;;;;;5013576;28;45309;-75
2022/01/22 06:44:16;;;;;;;;;39.25;33.50;;;;;;;;5012855;28;45258;-74
2022/01/22 06:46:42;;;;;;;;;23.50;22.25;;;;;;;;5012961;28;45627;-74
2022/01/22 06:49:07;;;;;;;;;32.00;24.50;;;;;;;;5007394;28;47650;-75
2022/01/22 06:51:33;;;;;;;;;28.25;26.25;;;;;;;;5013424;28;45653;-75
2022/01/22 06:53:59;;;;;;;;;31.75;27.75;;;;;;;;5012182;28;45338;-75
2022/01/22 06:56:25;;;;;;;;;33.75;28.25;;;;;;;;5010311;28;45407;-75
2022/01/22 06:58:50;;;;;;;;;36.25;28.50;;;;;;;;5009090;28;46280;-77
2022/01/22 07:01:15;;;;;;;;;27.50;25.75;;;;;;;;5009228;28;45409;-76
2022/01/22 07:03:41;;;;;;;;;39.25;30.00;;;;;;;;5009128;28;45712;-76
2022/01/22 07:06:06;;;;;;;;;31.50;28.50;;;;;;;;5011101;28;45411;-76
2022/01/22 07:08:31;;;;;;;;;30.25;28.00;;;;;;;;5011504;28;46421;-76
2022/01/22 07:10:56;;;;;;;;;26.50;22.50;;;;;;;;5009460;28;45501;-76
2022/01/22 07:13:22;;;;;;;;;31.00;28.25;;;;;;;;5001322;28;45325;-76
2022/01/22 07:15:47;;;;;;;;;36.00;30.00;;;;;;;;5004200;28;45371;-76
2022/01/22 07:18:13;;;;;;;;;29.00;22.25;;;;;;;;5013323;28;47422;-76
2022/01/22 07:20:40;;;;;;;;;27.75;25.50;;;;;;;;5016281;28;45403;-76
2022/01/22 07:25:44;;;;;;;;;25.75;23.00;;;;;;;;5012203;28;45339;-76
2022/01/22 07:28:11;;;;;;;;;29.00;25.00;;;;;;;;5011724;28;47257;-76
2022/01/22 07:30:36;;;;;;;;;28.25;24.75;;;;;;;;5016028;28;45323;-76
2022/01/22 07:33:02;;;;;;;;;30.75;26.75;;;;;;;;5015218;28;45431;-76
2022/01/22 07:35:28;;;;;;;;;23.50;21.75;;;;;;;;5014332;28;45401;-76
2022/01/22 07:37:53;;;;;;;;;32.25;27.00;;;;;;;;5012648;28;45500;-76
2022/01/22 07:40:18;;;;;;;;;37.25;28.75;;;;;;;;5012157;28;45423;-76
2022/01/22 07:42:44;;;;;;;;;33.25;29.25;;;;;;;;5012008;28;45281;-76
2022/01/22 07:45:09;;;;;;;;;41.25;32.00;;;;;;;;5013669;28;45280;-76
2022/01/22 07:47:35;;;;;;;;;33.25;26.25;;;;;;;;5014031;28;46338;-74
2022/01/22 07:50:00;;;;;;;;;27.50;24.75;;;;;;;;5013090;28;47213;-74
2022/01/22 07:52:26;;;;;;;;;26.00;23.75;;;;;;;;5016502;28;45351;-75
2022/01/22 07:54:51;;;;;;;;;33.50;30.50;;;;;;;;5016213;28;45412;-74
2022/01/22 07:57:16;;;;;;;;;32.75;28.00;;;;;;;;5015960;28;47105;-73
2022/01/22 07:59:41;;;;;;;;;30.50;25.25;;;;;;;;5015460;28;45302;-75
2022/01/22 08:02:06;;;;;;;;;29.25;28.50;;;;;;;;5012164;28;45327;-74
2022/01/22 08:04:33;;;;;;;;;30.75;28.75;;;;;;;;5011253;28;45299;-76
2022/01/22 08:06:59;;;;;;;;;28.25;25.75;;;;;;;;5011417;28;46226;-75
2022/01/22 08:09:24;;;;;;;;;27.00;24.75;;;;;;;;5015851;28;45586;-74
2022/01/22 08:11:49;;;;;;;;;31.75;26.50;;;;;;;;5015723;28;45524;-75
2022/01/22 08:14:15;;;;;;;;;31.50;24.25;;;;;;;;5016276;28;45539;-76
2022/01/22 08:16:40;;;;;;;;;31.00;26.50;;;;;;;;5010795;28;46268;-76
2022/01/22 08:19:06;;;;;;;;;44.25;36.50;;;;;;;;5011515;28;45339;-74
2022/01/22 08:21:31;;;;;;;;;47.25;39.50;;;;;;;;5015793;28;45279;-78
2022/01/22 08:23:56;;;;;;;;;31.50;28.25;;;;;;;;5015288;28;45466;-77
2022/01/22 08:26:27;;;;;;;;;41.25;33.50;;;;;;;;5015639;28;45367;-76
2022/01/22 08:28:57;;;;;;;;;24.75;22.00;;;;;;;;5015887;28;45365;-77
2022/01/22 08:36:47;;;;;;;;;33.00;29.50;;;;;;;;4992695;28;45410;-76
2022/01/22 08:39:14;;;;;;;;;35.50;28.25;;;;;;;;4992939;28;45436;-76
2022/01/22 08:41:39;;;;;;;;;32.00;25.75;;;;;;;;4992970;28;45649;-76
2022/01/22 08:44:05;;;;;;;;;32.00;29.00;;;;;;;;4993952;28;45391;-77
2022/01/22 08:46:31;;;;;;;;;33.50;26.50;;;;;;;;4992095;28;45924;-76
2022/01/22 08:48:56;;;;;;;;;37.50;31.25;;;;;;;;4993008;28;45452;-76
2022/01/22 08:51:22;;;;;;;;;40.25;33.25;;;;;;;;4977123;28;45495;-76
2022/01/22 08:53:48;;;;;;;;;37.50;29.25;;;;;;;;4993528;28;45454;-78
2022/01/22 08:56:13;;;;;;;;;28.75;28.00;;;;;;;;4993255;28;47064;-77
2022/01/22 08:58:38;;;;;;;;;29.75;27.00;;;;;;;;4992355;28;45424;-78
2022/01/22 09:01:04;;;;;;;;;31.75;29.75;;;;;;;;4992749;28;45458;-73
2022/01/22 09:03:30;;;;;;;;;31.50;27.75;;;;;;;;4992734;28;45550;-76
2022/01/22 09:05:56;;;;;;;;;36.50;28.25;;;;;;;;4992947;28;46431;-76
2022/01/22 09:08:23;;;;;;;;;30.50;28.00;;;;;;;;4993130;28;45408;-77
2022/01/22 09:10:48;;;;;;;;;33.50;31.00;;;;;;;;4993078;28;45494;-73
2022/01/22 09:13:13;;;;;;;;;31.00;23.75;;;;;;;;5001041;28;45547;-76
2022/01/22 09:15:39;;;;;;;;;31.50;26.00;;;;;;;;5009457;28;45439;-75
2022/01/22 09:18:05;;;;;;;;;34.25;29.25;;;;;;;;5012172;28;47561;-76
2022/01/22 09:21:16;;;;;;;;;32.00;27.00;;;;;;;;5012595;28;45263;-78
2022/01/22 09:23:17;;;;;;;;;34.75;30.50;;;;;;;;5011322;28;45580;-78
2022/01/22 09:25:42;;;;;;;;;40.50;35.25;;;;;;;;5009789;28;46126;-78
2022/01/22 09:28:10;;;;;;;;;27.00;24.50;;;;;;;;5014351;28;45469;-78
2022/01/22 09:30:36;;;;;;;;;36.50;28.75;;;;;;;;5009815;28;45394;-78
2022/01/22 09:33:01;;;;;;;;;36.50;32.00;;;;;;;;5013546;28;45478;-78
2022/01/22 09:35:26;;;;;;;;;33.25;27.75;;;;;;;;5011437;28;45527;-75
2022/01/22 09:37:52;;;;;;;;;34.75;31.75;;;;;;;;5010185;28;45441;-79
2022/01/22 09:40:17;;;;;;;;;32.50;26.25;;;;;;;;5009116;28;45427;-84
2022/01/22 09:42:42;;;;;;;;;30.50;26.50;;;;;;;;5016272;28;45504;-81
2022/01/22 09:45:08;;;;;;;;;31.25;27.50;;;;;;;;5014740;28;46143;-78
2022/01/22 09:47:34;;;;;;;;;36.00;30.75;;;;;;;;5012388;28;45444;-80
2022/01/22 09:49:59;;;;;;;;;33.25;28.50;;;;;;;;5028188;28;45323;-81
2022/01/22 09:52:24;;;;;;;;;33.25;30.00;;;;;;;;5012364;28;45571;-79
2022/01/22 09:54:50;;;;;;;;;43.75;34.25;;;;;;;;5014601;28;46134;-79
2022/01/22 09:57:15;;;;;;;;;39.00;32.25;;;;;;;;5011974;28;45324;-80
2022/01/22 09:59:40;;;;;;;;;30.75;28.25;;;;;;;;5017963;28;45529;-79
2022/01/22 10:02:07;;;;;;;;;38.50;34.50;;;;;;;;5030336;28;45500;-80
2022/01/22 10:04:36;;;;;;;;;31.50;31.25;;;;;;;;5010526;28;45493;-80
2022/01/22 10:07:01;;;;;;;;;32.25;25.50;;;;;;;;5013351;28;46023;-81
2022/01/22 10:09:33;;;;;;;;;35.25;30.50;;;;;;;;5011528;28;45213;-81
2022/01/22 10:12:09;;;;;;;;;30.25;27.50;;;;;;;;5012855;28;45572;-72
2022/01/22 10:14:34;;;;;;;;;33.00;28.75;;;;;;;;5012649;28;46526;-81
2022/01/22 10:17:00;;;;;;;;;36.25;31.75;;;;;;;;5010552;28;45331;-79
2022/01/22 10:19:25;;;;;;;;;28.25;25.50;;;;;;;;5012787;28;45462;-78
2022/01/22 10:21:56;;;;;;;;;44.00;32.75;;;;;;;;5012276;28;45464;-79
2022/01/22 10:24:28;;;;;;;;;34.50;28.00;;;;;;;;5012218;28;47071;-80
2022/01/22 10:27:11;;;;;;;;;32.75;32.50;;;;;;;;5006634;28;45688;-81
2022/01/22 10:29:46;;;;;;;;;41.00;33.75;;;;;;;;5011178;28;45415;-82
2022/01/22 10:32:16;;;;;;;;;32.75;29.00;;;;;;;;5013474;28;45363;-82
2022/01/22 10:34:42;;;;;;;;;33.50;29.50;;;;;;;;5001143;28;45501;-80
2022/01/22 10:37:07;;;;;;;;;38.25;32.00;;;;;;;;5007718;28;45388;-79
2022/01/22 10:39:33;;;;;;;;;34.75;33.25;;;;;;;;5012015;28;45294;-80
2022/01/22 10:41:58;;;;;;;;;35.25;29.25;;;;;;;;5010971;28;45489;-81
2022/01/22 10:47:17;;;;;;;;;31.50;29.75;;;;;;;;5114135;27;45350;-81
2022/01/22 10:49:42;;;;;;;;;35.50;29.50;;;;;;;;5111446;27;45423;-79
2022/01/22 10:52:11;;;;;;;;;27.50;25.00;;;;;;;;5109496;27;45370;-80
2022/01/22 10:54:37;;;;;;;;;29.25;27.00;;;;;;;;5113727;27;46018;-81
2022/01/22 10:57:12;;;;;;;;;28.50;25.25;;;;;;;;5110817;27;46005;-81
2022/01/22 10:59:43;;;;;;;;;26.00;24.75;;;;;;;;5110499;27;45461;-81
2022/01/22 11:02:09;;;;;;;;;31.50;30.50;;;;;;;;5112468;27;45347;-79
2022/01/22 11:04:34;;;;;;;;;34.00;29.00;;;;;;;;5110505;27;45423;-81
2022/01/22 11:07:01;;;;;;;;;36.00;30.50;;;;;;;;5110823;27;46009;-76
2022/01/22 11:09:29;;;;;;;;;33.50;30.75;;;;;;;;5105622;27;45448;-79
2022/01/22 11:11:55;;;;;;;;;33.25;23.50;;;;;;;;5110889;27;45438;-81
2022/01/22 11:14:20;;;;;;;;;35.75;32.75;;;;;;;;5123017;27;45442;-79
2022/01/22 11:16:47;;;;;;;;;34.25;29.75;;;;;;;;5111531;27;45267;-76
2022/01/22 11:19:17;;;;;;;;;37.25;30.00;;;;;;;;5113612;27;45422;-77
2022/01/22 11:21:46;;;;;;;;;38.25;30.25;;;;;;;;5112355;27;45376;-80
2022/01/22 11:24:12;;;;;;;;;28.25;22.00;;;;;;;;5108008;27;47257;-77
2022/01/22 11:26:38;;;;;;;;;29.50;25.75;;;;;;;;5105090;27;47474;-77
2022/01/22 11:29:04;;;;;;;;;27.75;25.50;;;;;;;;5111304;27;45355;-77
2022/01/22 11:31:30;;;;;;;;;27.75;23.75;;;;;;;;5110054;27;45393;-81
2022/01/22 11:33:56;;;;;;;;;22.25;20.75;;;;;;;;5110581;27;47414;-79
2022/01/22 11:36:28;;;;;;;;;26.00;21.50;;;;;;;;5110896;27;45482;-82
2022/01/22 11:38:55;;;;;;;;;24.00;22.75;;;;;;;;5096477;27;45577;-71
2022/01/22 11:41:22;;;;;;;;;27.50;27.00;;;;;;;;5110329;27;45466;-72
2022/01/22 11:43:52;;;;;;;;;35.75;28.50;;;;;;;;5110594;27;45327;-73
2022/01/22 11:46:25;;;;;;;;;26.50;25.50;;;;;;;;5109076;27;46142;-71
2022/01/22 11:49:09;;;;;;;;;32.75;26.25;;;;;;;;5108727;27;45428;-73
2022/01/22 11:51:34;;;;;;;;;23.75;22.00;;;;;;;;5109562;27;45405;-73
2022/01/22 11:54:00;;;;;;;;;21.00;16.50;;;;;;;;5110060;27;45410;-73
2022/01/22 11:56:29;;;;;;;;;30.25;29.00;;;;;;;;5108058;27;46077;-73
2022/01/22 11:59:06;;;;;;;;;31.00;26.50;;;;;;;;5095933;27;45389;-73
2022/01/22 12:01:37;;;;;;;;;29.75;23.00;;;;;;;;5095736;27;45511;-73
2022/01/22 12:04:02;;;;;;;;;27.50;25.75;;;;;;;;5095820;27;45531;-73
2022/01/22 12:06:27;;;;;;;;;24.75;23.00;;;;;;;;5094569;27;46430;-72
2022/01/22 12:09:07;;;;;;;;;32.25;29.25;;;;;;;;5095544;27;45499;-74
2022/01/22 12:14:42;;;;;;;;;32.50;28.50;;;;;;;;5092567;27;45400;-75
2022/01/22 12:17:13;;;;;;;;;37.25;31.25;;;;;;;;5094957;27;46206;-74
2022/01/22 12:19:41;;;;;;;;;31.50;31.25;;;;;;;;5095128;27;45564;-73
2022/01/22 12:22:27;;;;;;;;;23.75;23.25;;;;;;;;5095391;27;45387;-73
2022/01/22 12:24:52;;;;;;;;;29.50;27.00;;;;;;;;5094407;27;45465;-73
2022/01/22 12:27:36;;;;;;;;;29.25;25.75;;;;;;;;5095133;27;46319;-72
2022/01/22 12:30:01;;;;;;;;;30.00;24.00;;;;;;;;5080641;27;45429;-73
2022/01/22 12:32:33;;;;;;;;;32.00;25.00;;;;;;;;5095580;27;45378;-73
2022/01/22 12:35:00;;;;;;;;;28.25;23.50;;;;;;;;5095220;27;45265;-72
2022/01/22 12:37:26;;;;;;;;;23.50;22.00;;;;;;;;5094210;27;47022;-73
2022/01/22 12:39:54;;;;;;;;;26.75;22.25;;;;;;;;5094810;27;45334;-72
2022/01/22 12:42:33;;;;;;;;;22.00;20.50;;;;;;;;5095081;27;45542;-73
2022/01/22 12:45:00;;;;;;;;;31.50;24.25;;;;;;;;5079964;27;45370;-73
2022/01/22 12:47:26;;;;;;;;;30.25;26.50;;;;;;;;5093284;27;46152;-72
2022/01/22 12:49:59;;;;;;;;;34.75;30.00;;;;;;;;5095035;27;45366;-73
2022/01/22 12:52:25;;;;;;;;;30.75;29.50;;;;;;;;5094306;27;45516;-71
2022/01/22 12:54:56;;;;;;;;;31.00;29.25;;;;;;;;5095033;27;45366;-71
2022/01/22 12:57:24;;;;;;;;;36.25;32.00;;;;;;;;5095434;27;47322;-72
2022/01/22 12:59:54;;;;;;;;;25.75;22.75;;;;;;;;5079037;27;45267;-72
2022/01/22 13:02:20;;;;;;;;;31.50;26.50;;;;;;;;5092422;27;45506;-73
2022/01/22 13:05:00;;;;;;;;;33.50;30.00;;;;;;;;5083522;27;45471;-73
2022/01/22 13:07:26;;;;;;;;;36.00;34.25;;;;;;;;5082627;27;46138;-72
2022/01/22 13:09:55;;;;;;;;;33.25;30.50;;;;;;;;5081962;27;45418;-73
2022/01/22 13:12:22;;;;;;;;;39.25;33.75;;;;;;;;5083288;27;45430;-72
2022/01/22 13:14:53;;;;;;;;;33.50;30.25;;;;;;;;5094774;27;45507;-72
2022/01/22 13:17:18;;;;;;;;;37.00;30.50;;;;;;;;5091234;27;45538;-71
2022/01/22 13:19:43;;;;;;;;;40.50;34.00;;;;;;;;5095047;27;45439;-71
2022/01/22 13:22:09;;;;;;;;;37.50;32.25;;;;;;;;5095191;27;45361;-73
2022/01/22 13:24:36;;;;;;;;;34.25;30.50;;;;;;;;5094919;27;45281;-72
2022/01/22 13:27:12;;;;;;;;;35.00;30.25;;;;;;;;5094999;27;46678;-70
2022/01/22 13:29:53;;;;;;;;;40.00;33.50;;;;;;;;5094829;27;45569;-72
2022/01/22 13:32:41;;;;;;;;;29.25;24.75;;;;;;;;5091331;27;45466;-73
2022/01/22 13:38:18;;;;;;;;;42.25;35.75;;;;;;;;5094628;27;45296;-71
2022/01/22 13:49:02;;;;;;;;;35.25;30.00;;;;;;;;5094279;27;45366;-73
2022/01/22 13:51:28;;;;;;;;;31.00;24.25;;;;;;;;5093630;27;45477;-73
2022/01/22 13:53:54;;;;;;;;;37.25;33.00;;;;;;;;5094390;27;45498;-73
2022/01/22 13:56:21;;;;;;;;;38.75;32.00;;;;;;;;5095054;27;45378;-73
2022/01/22 13:58:47;;;;;;;;;43.75;36.50;;;;;;;;5094708;27;46987;-73
2022/01/22 14:01:29;;;;;;;;;38.50;32.00;;;;;;;;5093815;27;45426;-71
2022/01/22 14:04:04;;;;;;;;;36.50;33.00;;;;;;;;5094195;27;45366;-73
2022/01/22 14:06:33;;;;;;;;;34.25;27.75;;;;;;;;5094357;27;45496;-72
2022/01/22 14:09:10;;;;;;;;;33.25;31.50;;;;;;;;5094623;27;46163;-73
2022/01/22 14:11:36;;;;;;;;;35.25;30.00;;;;;;;;5094827;27;45357;-73
2022/01/22 14:14:02;;;;;;;;;35.00;32.50;;;;;;;;5092528;27;45370;-72
2022/01/22 14:16:29;;;;;;;;;35.50;33.75;;;;;;;;5094185;27;45361;-73
2022/01/22 14:18:54;;;;;;;;;29.00;26.00;;;;;;;;5093173;27;46076;-73
2022/01/22 14:21:21;;;;;;;;;41.00;34.75;;;;;;;;5092975;27;45512;-73
2022/01/22 14:23:49;;;;;;;;;51.25;38.75;;;;;;;;5094017;27;45299;-73
2022/01/22 14:26:25;;;;;;;;;41.75;34.50;;;;;;;;5093853;27;45357;-72
2022/01/22 14:28:50;;;;;;;;;47.25;39.25;;;;;;;;5092059;27;48182;-72
2022/01/22 14:31:27;;;;;;;;;42.00;34.00;;;;;;;;5093502;27;45270;-73
2022/01/22 14:33:54;;;;;;;;;37.25;31.00;;;;;;;;5093453;27;45697;-73
2022/01/22 14:36:21;;;;;;;;;34.75;28.25;;;;;;;;5093841;27;45416;-73
2022/01/22 14:38:55;;;;;;;;;37.75;32.50;;;;;;;;5093533;27;46968;-72
2022/01/22 14:46:43;;;;;;;;;38.00;32.25;;;;;;;;5093345;27;45446;-73
2022/01/22 14:49:08;;;;;;;;;43.75;36.50;;;;;;;;5093140;27;46252;-71
2022/01/22 14:51:33;;;;;;;;;41.50;36.00;;;;;;;;5093849;27;45546;-72
2022/01/22 14:53:59;;;;;;;;;35.50;30.75;;;;;;;;5093558;27;45436;-72
2022/01/22 14:56:24;;;;;;;;;36.25;32.75;;;;;;;;5096897;27;45386;-73
2022/01/22 14:58:49;;;;;;;;;35.25;31.00;;;;;;;;5097825;27;46406;-72
2022/01/22 15:01:14;;;;;;;;;44.75;33.50;;;;;;;;5098626;27;45415;-72
2022/01/22 15:03:39;;;;;;;;;37.75;33.00;;;;;;;;5097961;27;45297;-74
2022/01/22 15:06:05;;;;;;;;;29.00;29.00;;;;;;;;5100414;27;45494;-74
2022/01/22 15:08:30;;;;;;;;;41.75;36.50;;;;;;;;5102045;27;46335;-73
2022/01/22 15:10:55;;;;;;;;;36.75;32.00;;;;;;;;5103128;27;45591;-74
2022/01/22 15:13:22;;;;;;;;;46.75;34.25;;;;;;;;5101226;27;45273;-73
2022/01/22 15:15:48;;;;;;;;;36.75;29.50;;;;;;;;5100693;27;45487;-72
2022/01/22 15:18:24;;;;;;;;;37.00;33.00;;;;;;;;5097880;27;46363;-75
2022/01/22 15:20:50;;;;;;;;;36.75;32.75;;;;;;;;5079944;27;45409;-71
2022/01/22 15:23:15;;;;;;;;;29.25;27.50;;;;;;;;5096451;27;45235;-72
2022/01/22 15:25:40;;;;;;;;;36.00;33.00;;;;;;;;5096954;27;45529;-73
2022/01/22 15:28:06;;;;;;;;;33.00;27.75;;;;;;;;5098009;27;46403;-74
2022/01/22 15:30:34;;;;;;;;;37.50;32.75;;;;;;;;5096121;27;45464;-73
2022/01/22 15:35:25;;;;;;;;;39.50;32.25;;;;;;;;5097353;27;45321;-72
2022/01/22 15:37:52;;;;;;;;;38.25;33.75;;;;;;;;5097250;27;45957;-77
2022/01/22 15:40:19;;;;;;;;;41.50;33.50;;;;;;;;5094069;27;45584;-80
2022/01/22 15:42:44;;;;;;;;;40.00;34.75;;;;;;;;5094869;27;45507;-82
2022/01/22 15:45:10;;;;;;;;;37.75;33.75;;;;;;;;5097379;27;45430;-82
2022/01/22 15:47:35;;;;;;;;;41.00;35.00;;;;;;;;5096894;27;46035;-81
2022/01/22 15:50:01;;;;;;;;;44.75;34.00;;;;;;;;5097621;27;45274;-80
2022/01/22 15:52:26;;;;;;;;;48.25;36.50;;;;;;;;5090927;27;45463;-81
2022/01/22 15:54:52;;;;;;;;;53.75;38.25;;;;;;;;5089067;27;45444;-80
2022/01/22 15:57:17;;;;;;;;;48.50;40.25;;;;;;;;5092231;27;45358;-78
2022/01/22 15:59:43;;;;;;;;;47.00;39.50;;;;;;;;5097528;27;45534;-76